sensor_id;sensor_type;location;lat;lon;timestamp;temperature;humidity
15203;DHT22;7702;51.046;5.184;2024-02-26T00:01:39;6.80;99.90
15203;DHT22;7702;51.046;5.184;2024-02-26T00:04:05;6.70;99.90
15203;DHT22;7702;51.046;5.184;2024-02-26T00:06:30;6.70;99.90
15203;DHT22;7702;51.046;5.184;2024-02-26T00:08:56;6.70;99.90
15203;DHT22;7702;51.046;5.184;2024-02-26T00:11:22;6.80;99.90
15203;DHT22;7702;51.046;5.184;2024-02-26T00:13:48;6.70;99.90
15203;DHT22;7702;51.046;5.184;2024-02-26T00:16:13;6.70;99.90
15203;DHT22;7702;51.046;5.184;2024-02-26T00:18:40;6.70;99.90
15203;DHT22;7702;51.046;5.184;2024-02-26T00:21:05;6.70;99.90
15203;DHT22;7702;51.046;5.184;2024-02-26T00:23:31;6.60;99.90
15203;DHT22;7702;51.046;5.184;2024-02-26T00:25:57;6.70;99.90
15203;DHT22;7702;51.046;5.184;2024-02-26T00:28:22;6.60;99.90
15203;DHT22;7702;51.046;5.184;2024-02-26T00:30:50;6.60;99.90
15203;DHT22;7702;51.046;5.184;2024-02-26T00:33:17;6.60;99.90
15203;DHT22;7702;51.046;5.184;2024-02-26T00:35:42;6.50;99.90
15203;DHT22;7702;51.046;5.184;2024-02-26T00:38:08;6.50;99.90
15203;DHT22;7702;51.046;5.184;2024-02-26T00:40:34;6.50;99.90
15203;DHT22;7702;51.046;5.184;2024-02-26T00:43:00;6.50;99.90
15203;DHT22;7702;51.046;5.184;2024-02-26T00:45:25;6.50;99.90
15203;DHT22;7702;51.046;5.184;2024-02-26T00:47:51;6.50;99.90
15203;DHT22;7702;51.046;5.184;2024-02-26T00:50:17;6.50;99.90
15203;DHT22;7702;51.046;5.184;2024-02-26T00:52:42;6.40;99.90
15203;DHT22;7702;51.046;5.184;2024-02-26T00:55:08;6.40;99.90
15203;DHT22;7702;51.046;5.184;2024-02-26T00:57:34;6.40;99.90
15203;DHT22;7702;51.046;5.184;2024-02-26T01:00:00;6.40;99.90
15203;DHT22;7702;51.046;5.184;2024-02-26T01:02:26;6.40;99.90
15203;DHT22;7702;51.046;5.184;2024-02-26T01:04:52;6.40;99.90
15203;DHT22;7702;51.046;5.184;2024-02-26T01:07:18;6.40;99.90
15203;DHT22;7702;51.046;5.184;2024-02-26T01:09:44;6.30;99.90
15203;DHT22;7702;51.046;5.184;2024-02-26T01:12:10;6.30;99.90
15203;DHT22;7702;51.046;5.184;2024-02-26T01:14:35;6.30;99.90
15203;DHT22;7702;51.046;5.184;2024-02-26T01:17:03;6.30;99.90
15203;DHT22;7702;51.046;5.184;2024-02-26T01:19:28;6.30;99.90
15203;DHT22;7702;51.046;5.184;2024-02-26T01:21:54;6.20;99.90
15203;DHT22;7702;51.046;5.184;2024-02-26T01:24:20;6.30;99.90
15203;DHT22;7702;51.046;5.184;2024-02-26T01:26:45;6.20;99.90
15203;DHT22;7702;51.046;5.184;2024-02-26T01:29:11;6.20;99.90
15203;DHT22;7702;51.046;5.184;2024-02-26T01:31:36;6.20;99.90
15203;DHT22;7702;51.046;5.184;2024-02-26T01:34:02;6.20;99.90
15203;DHT22;7702;51.046;5.184;2024-02-26T01:36:28;6.20;99.90
15203;DHT22;7702;51.046;5.184;2024-02-26T01:38:54;6.20;99.90
15203;DHT22;7702;51.046;5.184;2024-02-26T01:41:20;6.20;99.90
15203;DHT22;7702;51.046;5.184;2024-02-26T01:43:45;6.20;99.90
15203;DHT22;7702;51.046;5.184;2024-02-26T01:46:14;6.20;99.90
15203;DHT22;7702;51.046;5.184;2024-02-26T01:48:44;6.20;99.90
15203;DHT22;7702;51.046;5.184;2024-02-26T01:51:13;6.10;99.90
15203;DHT22;7702;51.046;5.184;2024-02-26T01:53:40;6.20;99.90
15203;DHT22;7702;51.046;5.184;2024-02-26T01:56:06;6.20;99.90
15203;DHT22;7702;51.046;5.184;2024-02-26T01:58:34;6.20;99.90
15203;DHT22;7702;51.046;5.184;2024-02-26T02:01:01;6.20;99.90
15203;DHT22;7702;51.046;5.184;2024-02-26T02:03:27;6.20;99.90
15203;DHT22;7702;51.046;5.184;2024-02-26T02:05:53;6.20;99.90
15203;DHT22;7702;51.046;5.184;2024-02-26T02:08:19;6.20;99.90
15203;DHT22;7702;51.046;5.184;2024-02-26T02:10:45;6.20;99.90
15203;DHT22;7702;51.046;5.184;2024-02-26T02:13:13;6.20;99.90
15203;DHT22;7702;51.046;5.184;2024-02-26T02:15:39;6.10;99.90
15203;DHT22;7702;51.046;5.184;2024-02-26T02:18:06;6.10;99.90
15203;DHT22;7702;51.046;5.184;2024-02-26T02:20:32;6.10;99.90
15203;DHT22;7702;51.046;5.184;2024-02-26T02:22:59;6.10;99.90
15203;DHT22;7702;51.046;5.184;2024-02-26T02:25:25;6.10;99.90
15203;DHT22;7702;51.046;5.184;2024-02-26T02:27:51;6.10;99.90
15203;DHT22;7702;51.046;5.184;2024-02-26T02:30:19;6.00;99.90
15203;DHT22;7702;51.046;5.184;2024-02-26T02:32:46;6.00;99.90
15203;DHT22;7702;51.046;5.184;2024-02-26T02:35:11;6.00;99.90
15203;DHT22;7702;51.046;5.184;2024-02-26T02:37:37;6.00;99.90
15203;DHT22;7702;51.046;5.184;2024-02-26T02:40:03;6.00;99.90
15203;DHT22;7702;51.046;5.184;2024-02-26T02:42:29;6.00;99.90
15203;DHT22;7702;51.046;5.184;2024-02-26T02:44:55;6.00;99.90
15203;DHT22;7702;51.046;5.184;2024-02-26T02:47:20;6.00;99.90
15203;DHT22;7702;51.046;5.184;2024-02-26T02:49:46;6.00;99.90
15203;DHT22;7702;51.046;5.184;2024-02-26T02:52:11;6.00;99.90
15203;DHT22;7702;51.046;5.184;2024-02-26T02:54:37;6.00;99.90
15203;DHT22;7702;51.046;5.184;2024-02-26T02:57:05;6.00;99.90
15203;DHT22;7702;51.046;5.184;2024-02-26T02:59:31;5.90;99.90
15203;DHT22;7702;51.046;5.184;2024-02-26T03:01:57;5.90;99.90
15203;DHT22;7702;51.046;5.184;2024-02-26T03:04:23;5.90;99.90
15203;DHT22;7702;51.046;5.184;2024-02-26T03:06:49;5.90;99.90
15203;DHT22;7702;51.046;5.184;2024-02-26T03:09:14;5.90;99.90
15203;DHT22;7702;51.046;5.184;2024-02-26T03:11:40;5.90;99.90
15203;DHT22;7702;51.046;5.184;2024-02-26T03:14:06;5.90;99.90
15203;DHT22;7702;51.046;5.184;2024-02-26T03:16:32;6.00;99.90
15203;DHT22;7702;51.046;5.184;2024-02-26T03:18:57;6.00;99.90
15203;DHT22;7702;51.046;5.184;2024-02-26T03:21:25;5.90;99.90
15203;DHT22;7702;51.046;5.184;2024-02-26T03:23:50;6.00;99.90
15203;DHT22;7702;51.046;5.184;2024-02-26T03:26:16;6.00;99.90
15203;DHT22;7702;51.046;5.184;2024-02-26T03:28:42;6.00;99.90
15203;DHT22;7702;51.046;5.184;2024-02-26T03:31:07;5.90;99.90
15203;DHT22;7702;51.046;5.184;2024-02-26T03:33:34;5.90;99.90
15203;DHT22;7702;51.046;5.184;2024-02-26T03:36:00;6.00;99.90
15203;DHT22;7702;51.046;5.184;2024-02-26T03:38:26;5.90;99.90
15203;DHT22;7702;51.046;5.184;2024-02-26T03:40:52;5.90;99.90
15203;DHT22;7702;51.046;5.184;2024-02-26T03:43:18;5.90;99.90
15203;DHT22;7702;51.046;5.184;2024-02-26T03:45:43;5.90;99.90
15203;DHT22;7702;51.046;5.184;2024-02-26T03:48:09;5.90;99.90
15203;DHT22;7702;51.046;5.184;2024-02-26T03:50:34;5.90;99.90
15203;DHT22;7702;51.046;5.184;2024-02-26T03:53:00;5.90;99.90
15203;DHT22;7702;51.046;5.184;2024-02-26T03:55:26;5.90;99.90
15203;DHT22;7702;51.046;5.184;2024-02-26T03:57:52;5.90;99.90
15203;DHT22;7702;51.046;5.184;2024-02-26T04:00:18;5.90;99.90
15203;DHT22;7702;51.046;5.184;2024-02-26T04:02:44;6.00;99.90
15203;DHT22;7702;51.046;5.184;2024-02-26T04:05:10;6.00;99.90
15203;DHT22;7702;51.046;5.184;2024-02-26T04:07:36;6.00;99.90
15203;DHT22;7702;51.046;5.184;2024-02-26T04:10:02;6.00;99.90
15203;DHT22;7702;51.046;5.184;2024-02-26T04:12:31;6.00;99.90
15203;DHT22;7702;51.046;5.184;2024-02-26T04:14:56;6.00;99.90
15203;DHT22;7702;51.046;5.184;2024-02-26T04:17:22;6.00;99.90
15203;DHT22;7702;51.046;5.184;2024-02-26T04:19:48;6.00;99.90
15203;DHT22;7702;51.046;5.184;2024-02-26T04:22:14;6.00;99.90
15203;DHT22;7702;51.046;5.184;2024-02-26T04:24:40;6.00;99.90
15203;DHT22;7702;51.046;5.184;2024-02-26T04:27:05;6.00;99.90
15203;DHT22;7702;51.046;5.184;2024-02-26T04:29:31;6.00;99.90
15203;DHT22;7702;51.046;5.184;2024-02-26T04:31:57;6.00;99.90
15203;DHT22;7702;51.046;5.184;2024-02-26T04:34:22;5.90;99.90
15203;DHT22;7702;51.046;5.184;2024-02-26T04:36:48;5.90;99.90
15203;DHT22;7702;51.046;5.184;2024-02-26T04:39:14;6.00;99.90
15203;DHT22;7702;51.046;5.184;2024-02-26T04:41:39;6.00;99.90
15203;DHT22;7702;51.046;5.184;2024-02-26T04:44:05;6.00;99.90
15203;DHT22;7702;51.046;5.184;2024-02-26T04:46:31;5.90;99.90
15203;DHT22;7702;51.046;5.184;2024-02-26T04:48:56;5.90;99.90
15203;DHT22;7702;51.046;5.184;2024-02-26T04:51:22;5.90;99.90
15203;DHT22;7702;51.046;5.184;2024-02-26T04:53:48;6.00;99.90
15203;DHT22;7702;51.046;5.184;2024-02-26T04:56:13;6.00;99.90
15203;DHT22;7702;51.046;5.184;2024-02-26T04:58:39;6.00;99.90
15203;DHT22;7702;51.046;5.184;2024-02-26T05:01:05;6.00;99.90
15203;DHT22;7702;51.046;5.184;2024-02-26T05:03:31;6.00;99.90
15203;DHT22;7702;51.046;5.184;2024-02-26T05:05:57;6.00;99.90
15203;DHT22;7702;51.046;5.184;2024-02-26T05:08:23;5.90;99.90
15203;DHT22;7702;51.046;5.184;2024-02-26T05:10:49;5.90;99.90
15203;DHT22;7702;51.046;5.184;2024-02-26T05:13:15;5.90;99.90
15203;DHT22;7702;51.046;5.184;2024-02-26T05:15:43;5.90;99.90
15203;DHT22;7702;51.046;5.184;2024-02-26T05:18:09;5.90;99.90
15203;DHT22;7702;51.046;5.184;2024-02-26T05:20:34;5.90;99.90
15203;DHT22;7702;51.046;5.184;2024-02-26T05:23:03;5.90;99.90
15203;DHT22;7702;51.046;5.184;2024-02-26T05:25:29;5.90;99.90
15203;DHT22;7702;51.046;5.184;2024-02-26T05:27:55;5.80;99.90
15203;DHT22;7702;51.046;5.184;2024-02-26T05:30:21;5.80;99.90
15203;DHT22;7702;51.046;5.184;2024-02-26T05:32:47;5.80;99.90
15203;DHT22;7702;51.046;5.184;2024-02-26T05:35:12;5.80;99.90
15203;DHT22;7702;51.046;5.184;2024-02-26T05:37:38;5.80;99.90
15203;DHT22;7702;51.046;5.184;2024-02-26T05:40:05;5.80;99.90
15203;DHT22;7702;51.046;5.184;2024-02-26T05:42:31;5.80;99.90
15203;DHT22;7702;51.046;5.184;2024-02-26T05:44:57;5.80;99.90
15203;DHT22;7702;51.046;5.184;2024-02-26T05:47:23;5.80;99.90
15203;DHT22;7702;51.046;5.184;2024-02-26T05:49:48;5.70;99.90
15203;DHT22;7702;51.046;5.184;2024-02-26T05:52:14;5.80;99.90
15203;DHT22;7702;51.046;5.184;2024-02-26T05:54:40;5.70;99.90
15203;DHT22;7702;51.046;5.184;2024-02-26T05:57:05;5.80;99.90
15203;DHT22;7702;51.046;5.184;2024-02-26T05:59:31;5.70;99.90
15203;DHT22;7702;51.046;5.184;2024-02-26T06:01:57;5.70;99.90
15203;DHT22;7702;51.046;5.184;2024-02-26T06:04:22;5.70;99.90
15203;DHT22;7702;51.046;5.184;2024-02-26T06:06:48;5.70;99.90
15203;DHT22;7702;51.046;5.184;2024-02-26T06:09:14;5.70;99.90
15203;DHT22;7702;51.046;5.184;2024-02-26T06:11:40;5.70;99.90
15203;DHT22;7702;51.046;5.184;2024-02-26T06:14:06;5.70;99.90
15203;DHT22;7702;51.046;5.184;2024-02-26T06:16:31;5.70;99.90
15203;DHT22;7702;51.046;5.184;2024-02-26T06:18:58;5.70;99.90
15203;DHT22;7702;51.046;5.184;2024-02-26T06:21:25;5.70;99.90
15203;DHT22;7702;51.046;5.184;2024-02-26T06:23:51;5.60;99.90
15203;DHT22;7702;51.046;5.184;2024-02-26T06:26:17;5.60;99.90
15203;DHT22;7702;51.046;5.184;2024-02-26T06:28:42;5.60;99.90
15203;DHT22;7702;51.046;5.184;2024-02-26T06:31:08;5.60;99.90
15203;DHT22;7702;51.046;5.184;2024-02-26T06:33:35;5.60;99.90
15203;DHT22;7702;51.046;5.184;2024-02-26T06:36:01;5.60;99.90
15203;DHT22;7702;51.046;5.184;2024-02-26T06:38:26;5.60;99.90
15203;DHT22;7702;51.046;5.184;2024-02-26T06:40:52;5.60;99.90
15203;DHT22;7702;51.046;5.184;2024-02-26T06:43:18;5.60;99.90
15203;DHT22;7702;51.046;5.184;2024-02-26T06:45:43;5.60;99.90
15203;DHT22;7702;51.046;5.184;2024-02-26T06:48:09;5.60;99.90
15203;DHT22;7702;51.046;5.184;2024-02-26T06:50:35;5.60;99.90
15203;DHT22;7702;51.046;5.184;2024-02-26T06:53:00;5.60;99.90
15203;DHT22;7702;51.046;5.184;2024-02-26T06:55:26;5.60;99.90
15203;DHT22;7702;51.046;5.184;2024-02-26T06:57:52;5.60;99.90
15203;DHT22;7702;51.046;5.184;2024-02-26T07:00:18;5.60;99.90
15203;DHT22;7702;51.046;5.184;2024-02-26T07:02:44;5.60;99.90
15203;DHT22;7702;51.046;5.184;2024-02-26T07:05:09;5.60;99.90
15203;DHT22;7702;51.046;5.184;2024-02-26T07:07:35;5.60;99.90
15203;DHT22;7702;51.046;5.184;2024-02-26T07:10:01;5.60;99.90
15203;DHT22;7702;51.046;5.184;2024-02-26T07:12:30;5.60;99.90
15203;DHT22;7702;51.046;5.184;2024-02-26T07:14:55;5.60;99.90
15203;DHT22;7702;51.046;5.184;2024-02-26T07:17:21;5.60;99.90
15203;DHT22;7702;51.046;5.184;2024-02-26T07:19:47;5.70;99.90
15203;DHT22;7702;51.046;5.184;2024-02-26T07:22:13;5.60;99.90
15203;DHT22;7702;51.046;5.184;2024-02-26T07:24:39;5.60;99.90
15203;DHT22;7702;51.046;5.184;2024-02-26T07:27:05;5.60;99.90
15203;DHT22;7702;51.046;5.184;2024-02-26T07:29:30;5.60;99.90
15203;DHT22;7702;51.046;5.184;2024-02-26T07:31:57;5.60;99.90
15203;DHT22;7702;51.046;5.184;2024-02-26T07:34:23;5.60;99.90
15203;DHT22;7702;51.046;5.184;2024-02-26T07:36:53;5.60;99.90
15203;DHT22;7702;51.046;5.184;2024-02-26T07:39:20;5.60;99.90
15203;DHT22;7702;51.046;5.184;2024-02-26T07:41:45;5.60;99.90
15203;DHT22;7702;51.046;5.184;2024-02-26T07:44:15;5.70;99.90
15203;DHT22;7702;51.046;5.184;2024-02-26T07:46:41;5.70;99.90
15203;DHT22;7702;51.046;5.184;2024-02-26T07:49:06;5.70;99.90
15203;DHT22;7702;51.046;5.184;2024-02-26T07:51:33;5.70;99.90
15203;DHT22;7702;51.046;5.184;2024-02-26T07:53:58;5.70;99.90
15203;DHT22;7702;51.046;5.184;2024-02-26T07:56:24;5.70;99.90
15203;DHT22;7702;51.046;5.184;2024-02-26T07:58:50;5.70;99.90
15203;DHT22;7702;51.046;5.184;2024-02-26T08:01:15;5.70;99.90
15203;DHT22;7702;51.046;5.184;2024-02-26T08:03:41;5.70;99.90
15203;DHT22;7702;51.046;5.184;2024-02-26T08:06:08;5.70;99.90
15203;DHT22;7702;51.046;5.184;2024-02-26T08:08:34;5.70;99.90
15203;DHT22;7702;51.046;5.184;2024-02-26T08:11:00;5.70;99.90
15203;DHT22;7702;51.046;5.184;2024-02-26T08:13:25;5.70;99.90
15203;DHT22;7702;51.046;5.184;2024-02-26T08:15:52;5.70;99.90
15203;DHT22;7702;51.046;5.184;2024-02-26T08:18:18;5.70;99.90
15203;DHT22;7702;51.046;5.184;2024-02-26T08:20:44;5.70;99.90
15203;DHT22;7702;51.046;5.184;2024-02-26T08:23:10;5.70;99.90
15203;DHT22;7702;51.046;5.184;2024-02-26T08:25:35;5.70;99.90
15203;DHT22;7702;51.046;5.184;2024-02-26T08:28:01;5.70;99.90
15203;DHT22;7702;51.046;5.184;2024-02-26T08:30:27;5.70;99.90
15203;DHT22;7702;51.046;5.184;2024-02-26T08:32:52;5.70;99.90
15203;DHT22;7702;51.046;5.184;2024-02-26T08:35:19;5.70;99.90
15203;DHT22;7702;51.046;5.184;2024-02-26T08:37:45;5.70;99.90
15203;DHT22;7702;51.046;5.184;2024-02-26T08:40:11;5.70;99.90
15203;DHT22;7702;51.046;5.184;2024-02-26T08:42:37;5.70;99.90
15203;DHT22;7702;51.046;5.184;2024-02-26T08:45:03;5.70;99.90
15203;DHT22;7702;51.046;5.184;2024-02-26T08:47:29;5.70;99.90
15203;DHT22;7702;51.046;5.184;2024-02-26T08:49:54;5.60;99.90
15203;DHT22;7702;51.046;5.184;2024-02-26T08:52:20;5.60;99.90
15203;DHT22;7702;51.046;5.184;2024-02-26T08:54:47;5.60;99.90
15203;DHT22;7702;51.046;5.184;2024-02-26T08:57:13;5.70;99.90
15203;DHT22;7702;51.046;5.184;2024-02-26T08:59:39;5.60;99.90
15203;DHT22;7702;51.046;5.184;2024-02-26T09:02:05;5.60;99.90
15203;DHT22;7702;51.046;5.184;2024-02-26T09:04:31;5.60;99.90
15203;DHT22;7702;51.046;5.184;2024-02-26T09:06:56;5.60;99.90
15203;DHT22;7702;51.046;5.184;2024-02-26T09:09:22;5.70;99.90
15203;DHT22;7702;51.046;5.184;2024-02-26T09:11:48;5.70;99.90
15203;DHT22;7702;51.046;5.184;2024-02-26T09:14:17;5.60;99.90
15203;DHT22;7702;51.046;5.184;2024-02-26T09:16:42;5.60;99.90
15203;DHT22;7702;51.046;5.184;2024-02-26T09:19:08;5.70;99.90
15203;DHT22;7702;51.046;5.184;2024-02-26T09:21:34;5.70;99.90
15203;DHT22;7702;51.046;5.184;2024-02-26T09:23:59;5.70;99.90
15203;DHT22;7702;51.046;5.184;2024-02-26T09:26:25;5.70;99.90
15203;DHT22;7702;51.046;5.184;2024-02-26T09:28:51;5.80;99.90
15203;DHT22;7702;51.046;5.184;2024-02-26T09:31:17;5.70;99.90
15203;DHT22;7702;51.046;5.184;2024-02-26T09:33:46;5.80;99.90
15203;DHT22;7702;51.046;5.184;2024-02-26T09:36:12;5.80;99.90
15203;DHT22;7702;51.046;5.184;2024-02-26T09:38:39;5.80;99.90
15203;DHT22;7702;51.046;5.184;2024-02-26T09:41:05;5.80;99.90
15203;DHT22;7702;51.046;5.184;2024-02-26T09:43:38;5.80;99.90
15203;DHT22;7702;51.046;5.184;2024-02-26T09:46:08;5.80;99.90
15203;DHT22;7702;51.046;5.184;2024-02-26T09:48:35;5.70;99.90
15203;DHT22;7702;51.046;5.184;2024-02-26T09:51:02;5.80;99.90
15203;DHT22;7702;51.046;5.184;2024-02-26T09:53:29;5.80;99.90
15203;DHT22;7702;51.046;5.184;2024-02-26T09:55:57;5.80;99.90
15203;DHT22;7702;51.046;5.184;2024-02-26T09:58:24;5.80;99.90
15203;DHT22;7702;51.046;5.184;2024-02-26T10:00:56;5.70;99.90
15203;DHT22;7702;51.046;5.184;2024-02-26T10:03:30;5.70;99.90
15203;DHT22;7702;51.046;5.184;2024-02-26T10:05:57;5.80;99.90
15203;DHT22;7702;51.046;5.184;2024-02-26T10:08:24;5.70;99.90
15203;DHT22;7702;51.046;5.184;2024-02-26T10:10:50;5.70;99.90
15203;DHT22;7702;51.046;5.184;2024-02-26T10:13:16;5.70;99.90
15203;DHT22;7702;51.046;5.184;2024-02-26T10:15:41;5.80;99.90
15203;DHT22;7702;51.046;5.184;2024-02-26T10:18:07;5.80;99.90
15203;DHT22;7702;51.046;5.184;2024-02-26T10:20:33;5.80;99.90
15203;DHT22;7702;51.046;5.184;2024-02-26T10:23:03;5.80;99.90
15203;DHT22;7702;51.046;5.184;2024-02-26T10:25:29;5.80;99.90
15203;DHT22;7702;51.046;5.184;2024-02-26T10:28:00;5.80;99.90
15203;DHT22;7702;51.046;5.184;2024-02-26T10:30:28;5.80;99.90
15203;DHT22;7702;51.046;5.184;2024-02-26T10:32:54;5.70;99.90
15203;DHT22;7702;51.046;5.184;2024-02-26T10:35:20;5.70;99.90
15203;DHT22;7702;51.046;5.184;2024-02-26T10:37:46;5.80;99.90
15203;DHT22;7702;51.046;5.184;2024-02-26T10:40:13;5.80;99.90
15203;DHT22;7702;51.046;5.184;2024-02-26T10:42:40;5.80;99.90
15203;DHT22;7702;51.046;5.184;2024-02-26T10:45:06;5.80;99.90
15203;DHT22;7702;51.046;5.184;2024-02-26T10:47:35;5.80;99.90
15203;DHT22;7702;51.046;5.184;2024-02-26T10:50:05;5.80;99.90
15203;DHT22;7702;51.046;5.184;2024-02-26T10:52:36;5.80;99.90
15203;DHT22;7702;51.046;5.184;2024-02-26T10:55:03;5.80;99.90
15203;DHT22;7702;51.046;5.184;2024-02-26T10:57:40;5.90;99.90
15203;DHT22;7702;51.046;5.184;2024-02-26T11:00:08;5.90;99.90
15203;DHT22;7702;51.046;5.184;2024-02-26T11:02:38;5.90;99.90
15203;DHT22;7702;51.046;5.184;2024-02-26T11:05:07;5.90;99.90
15203;DHT22;7702;51.046;5.184;2024-02-26T11:07:34;5.90;99.90
15203;DHT22;7702;51.046;5.184;2024-02-26T11:10:03;5.90;99.90
15203;DHT22;7702;51.046;5.184;2024-02-26T11:12:31;5.90;99.90
15203;DHT22;7702;51.046;5.184;2024-02-26T11:14:57;5.90;99.90
15203;DHT22;7702;51.046;5.184;2024-02-26T11:17:26;5.90;99.90
15203;DHT22;7702;51.046;5.184;2024-02-26T11:19:56;5.90;99.90
15203;DHT22;7702;51.046;5.184;2024-02-26T11:22:24;5.90;99.90
15203;DHT22;7702;51.046;5.184;2024-02-26T11:24:52;6.00;99.90
15203;DHT22;7702;51.046;5.184;2024-02-26T11:27:19;6.00;99.90
15203;DHT22;7702;51.046;5.184;2024-02-26T11:29:52;6.00;99.90
15203;DHT22;7702;51.046;5.184;2024-02-26T11:32:20;6.00;99.90
15203;DHT22;7702;51.046;5.184;2024-02-26T11:34:46;6.00;99.90
15203;DHT22;7702;51.046;5.184;2024-02-26T11:37:13;6.00;99.90
15203;DHT22;7702;51.046;5.184;2024-02-26T11:39:40;6.00;99.90
15203;DHT22;7702;51.046;5.184;2024-02-26T11:42:07;6.00;99.90
15203;DHT22;7702;51.046;5.184;2024-02-26T11:44:34;6.00;99.90
15203;DHT22;7702;51.046;5.184;2024-02-26T11:47:11;6.00;99.90
15203;DHT22;7702;51.046;5.184;2024-02-26T11:49:37;5.90;99.90
15203;DHT22;7702;51.046;5.184;2024-02-26T11:52:07;6.00;99.90
15203;DHT22;7702;51.046;5.184;2024-02-26T11:54:53;6.00;99.90
15203;DHT22;7702;51.046;5.184;2024-02-26T11:57:28;6.00;99.90
15203;DHT22;7702;51.046;5.184;2024-02-26T11:59:55;6.10;99.90
15203;DHT22;7702;51.046;5.184;2024-02-26T12:05:16;6.10;99.90
15203;DHT22;7702;51.046;5.184;2024-02-26T12:07:54;6.10;99.90
15203;DHT22;7702;51.046;5.184;2024-02-26T12:10:25;6.10;99.90
15203;DHT22;7702;51.046;5.184;2024-02-26T12:13:00;6.20;99.90
15203;DHT22;7702;51.046;5.184;2024-02-26T12:15:43;6.20;99.90
15203;DHT22;7702;51.046;5.184;2024-02-26T12:18:10;6.30;99.90
15203;DHT22;7702;51.046;5.184;2024-02-26T12:20:37;6.30;99.90
15203;DHT22;7702;51.046;5.184;2024-02-26T12:23:03;6.40;99.90
15203;DHT22;7702;51.046;5.184;2024-02-26T12:25:33;6.40;99.90
15203;DHT22;7702;51.046;5.184;2024-02-26T12:27:59;6.30;99.90
15203;DHT22;7702;51.046;5.184;2024-02-26T12:30:25;6.30;99.90
15203;DHT22;7702;51.046;5.184;2024-02-26T12:32:52;6.30;99.90
15203;DHT22;7702;51.046;5.184;2024-02-26T12:35:23;6.30;99.90
15203;DHT22;7702;51.046;5.184;2024-02-26T12:37:49;6.30;99.90
15203;DHT22;7702;51.046;5.184;2024-02-26T12:40:17;6.30;99.90
15203;DHT22;7702;51.046;5.184;2024-02-26T12:42:43;6.20;99.90
15203;DHT22;7702;51.046;5.184;2024-02-26T12:45:11;6.20;99.90
15203;DHT22;7702;51.046;5.184;2024-02-26T12:47:41;6.20;99.90
15203;DHT22;7702;51.046;5.184;2024-02-26T12:50:08;6.20;99.90
15203;DHT22;7702;51.046;5.184;2024-02-26T12:52:36;6.20;99.90
15203;DHT22;7702;51.046;5.184;2024-02-26T12:55:02;6.20;99.90
15203;DHT22;7702;51.046;5.184;2024-02-26T12:57:34;6.20;99.90
15203;DHT22;7702;51.046;5.184;2024-02-26T13:00:01;6.00;99.90
15203;DHT22;7702;51.046;5.184;2024-02-26T13:02:27;6.10;99.90
15203;DHT22;7702;51.046;5.184;2024-02-26T13:04:54;6.00;99.90
15203;DHT22;7702;51.046;5.184;2024-02-26T13:07:21;6.00;99.90
15203;DHT22;7702;51.046;5.184;2024-02-26T13:09:46;6.00;99.90
15203;DHT22;7702;51.046;5.184;2024-02-26T13:12:12;6.00;99.90
15203;DHT22;7702;51.046;5.184;2024-02-26T13:14:39;6.00;99.90
15203;DHT22;7702;51.046;5.184;2024-02-26T13:17:05;5.90;99.90
15203;DHT22;7702;51.046;5.184;2024-02-26T13:19:31;5.90;99.90
15203;DHT22;7702;51.046;5.184;2024-02-26T13:22:03;5.90;99.90
15203;DHT22;7702;51.046;5.184;2024-02-26T13:24:29;5.90;99.90
15203;DHT22;7702;51.046;5.184;2024-02-26T13:26:56;5.90;99.90
15203;DHT22;7702;51.046;5.184;2024-02-26T13:29:22;5.90;99.90
15203;DHT22;7702;51.046;5.184;2024-02-26T13:32:03;5.90;99.90
15203;DHT22;7702;51.046;5.184;2024-02-26T13:34:29;5.90;99.90
15203;DHT22;7702;51.046;5.184;2024-02-26T13:36:56;5.90;99.90
15203;DHT22;7702;51.046;5.184;2024-02-26T13:39:23;5.80;99.90
15203;DHT22;7702;51.046;5.184;2024-02-26T13:41:50;5.90;99.90
15203;DHT22;7702;51.046;5.184;2024-02-26T13:44:15;5.90;99.90
15203;DHT22;7702;51.046;5.184;2024-02-26T13:46:41;5.90;99.90
15203;DHT22;7702;51.046;5.184;2024-02-26T13:49:08;6.00;99.90
15203;DHT22;7702;51.046;5.184;2024-02-26T13:51:34;6.00;99.90
15203;DHT22;7702;51.046;5.184;2024-02-26T13:54:01;6.00;99.90
15203;DHT22;7702;51.046;5.184;2024-02-26T13:56:27;6.00;99.90
15203;DHT22;7702;51.046;5.184;2024-02-26T13:58:53;6.10;99.90
15203;DHT22;7702;51.046;5.184;2024-02-26T14:01:18;6.00;99.90
15203;DHT22;7702;51.046;5.184;2024-02-26T14:03:44;6.10;99.90
15203;DHT22;7702;51.046;5.184;2024-02-26T14:06:10;6.10;99.90
15203;DHT22;7702;51.046;5.184;2024-02-26T14:08:36;6.10;99.90
15203;DHT22;7702;51.046;5.184;2024-02-26T14:11:01;6.10;99.90
15203;DHT22;7702;51.046;5.184;2024-02-26T14:13:27;6.10;99.90
15203;DHT22;7702;51.046;5.184;2024-02-26T14:15:53;6.20;99.90
15203;DHT22;7702;51.046;5.184;2024-02-26T14:18:18;6.20;99.90
15203;DHT22;7702;51.046;5.184;2024-02-26T14:20:45;6.20;99.90
15203;DHT22;7702;51.046;5.184;2024-02-26T14:23:10;6.20;99.90
15203;DHT22;7702;51.046;5.184;2024-02-26T14:25:36;6.20;99.90
15203;DHT22;7702;51.046;5.184;2024-02-26T14:28:03;6.20;99.90
15203;DHT22;7702;51.046;5.184;2024-02-26T14:30:29;6.20;99.90
15203;DHT22;7702;51.046;5.184;2024-02-26T14:32:55;6.30;99.90
15203;DHT22;7702;51.046;5.184;2024-02-26T14:35:20;6.30;99.90
15203;DHT22;7702;51.046;5.184;2024-02-26T14:37:46;6.30;99.90
15203;DHT22;7702;51.046;5.184;2024-02-26T14:40:14;6.20;99.90
15203;DHT22;7702;51.046;5.184;2024-02-26T14:42:40;6.30;99.90
15203;DHT22;7702;51.046;5.184;2024-02-26T14:45:07;6.30;99.90
15203;DHT22;7702;51.046;5.184;2024-02-26T14:47:35;6.30;99.90
15203;DHT22;7702;51.046;5.184;2024-02-26T14:50:01;6.30;99.90
15203;DHT22;7702;51.046;5.184;2024-02-26T14:52:27;6.30;99.90
15203;DHT22;7702;51.046;5.184;2024-02-26T14:54:52;6.30;99.90
15203;DHT22;7702;51.046;5.184;2024-02-26T14:57:18;6.30;99.90
15203;DHT22;7702;51.046;5.184;2024-02-26T14:59:45;6.30;99.90
15203;DHT22;7702;51.046;5.184;2024-02-26T15:02:10;6.30;99.90
15203;DHT22;7702;51.046;5.184;2024-02-26T15:04:36;6.30;99.90
15203;DHT22;7702;51.046;5.184;2024-02-26T15:07:03;6.30;99.90
15203;DHT22;7702;51.046;5.184;2024-02-26T15:09:29;6.30;99.90
15203;DHT22;7702;51.046;5.184;2024-02-26T15:11:54;6.30;99.90
15203;DHT22;7702;51.046;5.184;2024-02-26T15:14:23;6.30;99.90
15203;DHT22;7702;51.046;5.184;2024-02-26T15:16:48;6.30;99.90
15203;DHT22;7702;51.046;5.184;2024-02-26T15:19:14;6.30;99.90
15203;DHT22;7702;51.046;5.184;2024-02-26T15:21:46;6.30;99.90
15203;DHT22;7702;51.046;5.184;2024-02-26T15:24:11;6.30;99.90
15203;DHT22;7702;51.046;5.184;2024-02-26T15:26:38;6.30;99.90
15203;DHT22;7702;51.046;5.184;2024-02-26T15:29:05;6.30;99.90
15203;DHT22;7702;51.046;5.184;2024-02-26T15:31:31;6.30;99.90
15203;DHT22;7702;51.046;5.184;2024-02-26T15:33:57;6.30;99.90
15203;DHT22;7702;51.046;5.184;2024-02-26T15:36:23;6.30;99.90
15203;DHT22;7702;51.046;5.184;2024-02-26T15:38:49;6.30;99.90
15203;DHT22;7702;51.046;5.184;2024-02-26T15:41:15;6.30;99.90
15203;DHT22;7702;51.046;5.184;2024-02-26T15:43:42;6.30;99.90
15203;DHT22;7702;51.046;5.184;2024-02-26T15:46:08;6.30;99.90
15203;DHT22;7702;51.046;5.184;2024-02-26T15:48:36;6.30;99.90
15203;DHT22;7702;51.046;5.184;2024-02-26T15:51:02;6.30;99.90
15203;DHT22;7702;51.046;5.184;2024-02-26T15:53:28;6.30;99.90
15203;DHT22;7702;51.046;5.184;2024-02-26T15:55:54;6.30;99.90
15203;DHT22;7702;51.046;5.184;2024-02-26T15:58:20;6.30;99.90
15203;DHT22;7702;51.046;5.184;2024-02-26T16:00:45;6.30;99.90